createdAt,value
2018-11-26T00:00:16.646Z,2.78
2018-11-26T00:01:16.736Z,2.74
2018-11-26T00:02:17.024Z,2.81
2018-11-26T00:03:16.294Z,3.00
2018-11-26T00:04:16.574Z,3.27
2018-11-26T00:05:16.848Z,3.19
2018-11-26T00:06:17.122Z,3.09
2018-11-26T00:07:16.397Z,3.03
2018-11-26T00:08:16.664Z,3.09
2018-11-26T00:09:16.937Z,3.14
2018-11-26T00:10:16.211Z,3.04
2018-11-26T00:11:16.273Z,3.23
2018-11-26T00:12:16.552Z,3.22
2018-11-26T00:13:16.817Z,3.19
2018-11-26T00:14:17.082Z,3.16
2018-11-26T00:15:16.351Z,3.17
2018-11-26T00:16:16.612Z,3.36
2018-11-26T00:17:16.879Z,3.40
2018-11-26T00:18:17.140Z,3.23
2018-11-26T00:19:16.409Z,3.17
2018-11-26T00:20:16.684Z,3.28
2018-11-26T00:21:16.724Z,3.19
2018-11-26T00:22:16.991Z,3.13
2018-11-26T00:23:16.253Z,3.13
2018-11-26T00:24:16.520Z,3.14
2018-11-26T00:25:16.804Z,3.13
2018-11-26T00:26:17.082Z,3.22
2018-11-26T00:27:16.381Z,3.17
2018-11-26T00:28:16.656Z,3.23
2018-11-26T00:29:16.945Z,3.12
2018-11-26T00:30:16.217Z,3.10
2018-11-26T00:31:16.309Z,3.22
2018-11-26T00:32:16.599Z,3.17
2018-11-26T00:33:16.864Z,3.12
2018-11-26T00:34:17.134Z,3.13
2018-11-26T00:35:16.410Z,3.12
2018-11-26T00:36:16.680Z,3.17
2018-11-26T00:37:16.941Z,3.09
2018-11-26T00:38:16.215Z,2.98
2018-11-26T00:39:16.480Z,3.12
2018-11-26T00:40:16.752Z,3.16
2018-11-26T00:41:16.794Z,3.17
2018-11-26T00:42:17.070Z,3.04
2018-11-26T00:43:16.341Z,3.09
2018-11-26T00:44:16.609Z,3.19
2018-11-26T00:45:16.886Z,3.09
2018-11-26T00:46:17.161Z,2.98
2018-11-26T00:47:16.442Z,2.92
2018-11-26T00:48:16.723Z,3.02
2018-11-26T00:49:16.990Z,3.16
2018-11-26T00:50:16.259Z,3.14
2018-11-26T00:51:16.323Z,3.02
2018-11-26T00:52:16.588Z,3.02
2018-11-26T00:53:16.856Z,2.91
2018-11-26T00:54:17.121Z,2.88
2018-11-26T00:55:16.391Z,2.81
2018-11-26T00:56:16.669Z,3.00
2018-11-26T00:57:16.960Z,3.06
2018-11-26T00:58:16.228Z,3.06
2018-11-26T00:59:16.499Z,3.14
2018-11-26T01:00:16.781Z,3.17
2018-11-26T01:01:16.834Z,3.16
2018-11-26T01:02:17.114Z,3.17
2018-11-26T01:03:16.379Z,3.23
2018-11-26T01:04:16.648Z,3.24
2018-11-26T01:05:16.931Z,3.24
2018-11-26T01:06:16.194Z,3.23
2018-11-26T01:07:16.472Z,3.26
2018-11-26T01:08:16.747Z,3.26
2018-11-26T01:09:17.044Z,3.24
2018-11-26T01:10:16.318Z,3.24
2018-11-26T01:11:16.373Z,3.17
2018-11-26T01:12:16.645Z,3.17
2018-11-26T01:13:16.907Z,3.17
2018-11-26T01:14:17.176Z,3.16
2018-11-26T01:15:16.450Z,3.16
2018-11-26T01:16:16.729Z,3.16
2018-11-26T01:17:16.990Z,3.19
2018-11-26T01:18:16.260Z,3.19
2018-11-26T01:19:16.534Z,3.23
2018-11-26T01:20:16.810Z,3.23
2018-11-26T01:21:16.871Z,3.26
2018-11-26T01:22:17.146Z,3.31
2018-11-26T01:23:16.417Z,3.31
2018-11-26T01:24:16.689Z,3.33
2018-11-26T01:25:16.986Z,3.44
2018-11-26T01:26:16.254Z,3.44
2018-11-26T01:27:16.521Z,3.36
2018-11-26T01:28:16.791Z,3.40
2018-11-26T01:29:17.069Z,3.40
2018-11-26T01:30:16.347Z,3.43
2018-11-26T01:31:16.418Z,3.39
2018-11-26T01:32:16.682Z,3.40
2018-11-26T01:33:16.947Z,3.39
2018-11-26T01:34:16.226Z,3.40
2018-11-26T01:35:16.506Z,3.37
2018-11-26T01:36:16.785Z,3.39
2018-11-26T01:37:17.064Z,3.41
2018-11-26T01:38:16.333Z,3.39
2018-11-26T01:39:16.596Z,3.40
2018-11-26T01:40:16.886Z,3.39
2018-11-26T01:41:16.922Z,3.39
2018-11-26T01:42:17.196Z,3.37
2018-11-26T01:43:16.469Z,3.39
2018-11-26T01:44:16.744Z,3.41
2018-11-26T01:45:17.035Z,3.44
2018-11-26T01:46:16.321Z,3.41
2018-11-26T01:47:16.599Z,3.44
2018-11-26T01:48:16.872Z,3.43
2018-11-26T01:49:17.156Z,3.50
2018-11-26T01:50:16.429Z,3.50
2018-11-26T01:51:16.499Z,3.47
2018-11-26T01:52:16.760Z,3.44
2018-11-26T01:53:17.028Z,3.47
2018-11-26T01:54:16.486Z,3.50
2018-11-26T01:55:16.762Z,3.47
2018-11-26T01:56:17.037Z,3.47
2018-11-26T01:57:16.310Z,3.49
2018-11-26T01:58:16.576Z,3.44
2018-11-26T01:59:16.848Z,3.50
2018-11-26T02:00:17.112Z,3.50
2018-11-26T02:01:16.206Z,3.51
2018-11-26T02:02:16.472Z,3.50
2018-11-26T02:03:16.743Z,3.46
2018-11-26T02:04:17.015Z,3.46
2018-11-26T02:05:16.515Z,3.46
2018-11-26T02:06:16.780Z,3.62
2018-11-26T02:07:17.059Z,3.62
2018-11-26T02:08:16.345Z,3.61
2018-11-26T02:09:16.623Z,3.58
2018-11-26T02:10:16.932Z,3.58
2018-11-26T02:11:16.964Z,3.60
2018-11-26T02:12:16.238Z,3.51
2018-11-26T02:13:16.504Z,3.51
2018-11-26T02:14:16.771Z,3.50
2018-11-26T02:15:17.048Z,3.51
2018-11-26T02:16:16.324Z,3.51
2018-11-26T02:17:16.599Z,3.51
2018-11-26T02:18:16.866Z,3.47
2018-11-26T02:19:17.141Z,3.46
2018-11-26T02:20:16.422Z,3.44
2018-11-26T02:21:16.473Z,3.44
2018-11-26T02:22:16.739Z,3.44
2018-11-26T02:23:17.006Z,3.43
2018-11-26T02:24:16.263Z,3.47
2018-11-26T02:25:16.544Z,3.43
2018-11-26T02:26:16.805Z,3.50
2018-11-26T02:27:17.068Z,3.43
2018-11-26T02:28:16.335Z,3.43
2018-11-26T02:29:16.602Z,3.43
2018-11-26T02:30:16.884Z,3.44
2018-11-26T02:31:16.948Z,3.53
2018-11-26T02:32:16.212Z,3.44
2018-11-26T02:33:16.490Z,3.41
2018-11-26T02:34:16.756Z,3.41
2018-11-26T02:35:17.031Z,3.43
2018-11-26T02:36:16.297Z,3.43
2018-11-26T02:37:16.574Z,3.44
2018-11-26T02:38:16.847Z,3.40
2018-11-26T02:39:17.124Z,3.41
2018-11-26T02:40:16.415Z,3.40
2018-11-26T02:41:16.475Z,3.39
2018-11-26T02:42:16.753Z,3.40
2018-11-26T02:43:16.331Z,3.43
2018-11-26T02:44:16.607Z,3.39
2018-11-26T02:45:16.885Z,3.40
2018-11-26T02:46:17.157Z,3.34
2018-11-26T02:47:16.438Z,3.36
2018-11-26T02:48:16.709Z,3.40
2018-11-26T02:49:16.979Z,3.37
2018-11-26T02:50:16.265Z,3.41
2018-11-26T02:51:16.309Z,3.41
2018-11-26T02:52:16.590Z,3.40
2018-11-26T02:53:16.849Z,3.36
2018-11-26T02:54:17.117Z,3.33
2018-11-26T02:55:16.392Z,3.36
2018-11-26T02:56:16.674Z,3.37
2018-11-26T02:57:16.949Z,3.41
2018-11-26T02:58:16.225Z,3.43
2018-11-26T02:59:16.512Z,3.46
2018-11-26T03:00:16.798Z,3.46
2018-11-26T03:01:16.841Z,3.44
2018-11-26T03:02:17.112Z,3.41
2018-11-26T03:03:16.386Z,3.41
2018-11-26T03:04:16.644Z,3.44
2018-11-26T03:05:16.918Z,3.43
2018-11-26T03:06:17.192Z,3.41
2018-11-26T03:07:16.459Z,3.40
2018-11-26T03:08:16.735Z,3.41
2018-11-26T03:09:16.992Z,3.49
2018-11-26T03:10:16.260Z,3.47
2018-11-26T03:11:16.344Z,3.47
2018-11-26T03:12:16.617Z,3.46
2018-11-26T03:13:16.881Z,3.46
2018-11-26T03:14:17.160Z,3.47
2018-11-26T03:15:16.423Z,3.53
2018-11-26T03:16:16.703Z,3.58
2018-11-26T03:17:16.978Z,3.60
2018-11-26T03:18:16.240Z,3.60
2018-11-26T03:19:16.507Z,3.54
2018-11-26T03:20:16.780Z,3.58
2018-11-26T03:21:16.856Z,3.57
2018-11-26T03:22:17.121Z,3.65
2018-11-26T03:23:16.392Z,3.61
2018-11-26T03:24:16.664Z,3.61
2018-11-26T03:25:16.944Z,3.58
2018-11-26T03:26:16.217Z,3.54
2018-11-26T03:27:16.495Z,3.64
2018-11-26T03:28:16.767Z,3.65
2018-11-26T03:29:17.027Z,3.60
2018-11-26T03:30:16.303Z,3.61
2018-11-26T03:31:16.380Z,3.62
2018-11-26T03:32:16.680Z,3.71
2018-11-26T03:33:17.005Z,3.68
2018-11-26T03:34:16.274Z,3.75
2018-11-26T03:35:16.547Z,3.72
2018-11-26T03:36:16.815Z,3.69
2018-11-26T03:37:17.091Z,3.65
2018-11-26T03:38:16.365Z,3.62
2018-11-26T03:39:16.642Z,3.62
2018-11-26T03:40:16.920Z,3.62
2018-11-26T03:41:16.960Z,3.62
2018-11-26T03:42:16.238Z,3.60
2018-11-26T03:43:16.516Z,3.62
2018-11-26T03:44:16.788Z,3.67
2018-11-26T03:45:17.059Z,3.60
2018-11-26T03:46:16.329Z,3.57
2018-11-26T03:47:16.600Z,3.55
2018-11-26T03:48:16.872Z,3.55
2018-11-26T03:49:17.159Z,3.53
2018-11-26T03:50:16.430Z,3.49
2018-11-26T03:51:16.523Z,3.53
2018-11-26T03:52:16.793Z,3.51
2018-11-26T03:53:17.054Z,3.50
2018-11-26T03:54:16.325Z,3.53
2018-11-26T03:55:16.609Z,3.49
2018-11-26T03:56:16.877Z,3.51
2018-11-26T03:57:17.150Z,3.54
2018-11-26T03:58:16.422Z,3.54
2018-11-26T03:59:16.690Z,3.53
2018-11-26T04:00:16.995Z,3.53
2018-11-26T04:01:17.040Z,3.57
2018-11-26T04:02:16.303Z,3.57
2018-11-26T04:03:16.581Z,3.54
2018-11-26T04:04:16.856Z,3.53
2018-11-26T04:05:17.116Z,3.54
2018-11-26T04:06:16.390Z,3.58
2018-11-26T04:07:16.664Z,3.54
2018-11-26T04:08:16.928Z,3.55
2018-11-26T04:09:17.211Z,3.53
2018-11-26T04:10:16.495Z,3.51
2018-11-26T04:11:16.555Z,3.53
2018-11-26T04:12:16.832Z,3.54
2018-11-26T04:13:16.284Z,3.53
2018-11-26T04:14:16.555Z,3.50
2018-11-26T04:15:16.839Z,3.51
2018-11-26T04:16:17.130Z,3.53
2018-11-26T04:17:16.399Z,3.51
2018-11-26T04:18:16.660Z,3.51
2018-11-26T04:19:16.931Z,3.55
2018-11-26T04:20:17.225Z,3.57
2018-11-26T04:21:16.262Z,3.55
2018-11-26T04:22:16.544Z,3.55
2018-11-26T04:23:16.814Z,3.54
2018-11-26T04:24:17.092Z,3.53
2018-11-26T04:25:16.367Z,3.55
2018-11-26T04:26:16.644Z,3.54
2018-11-26T04:27:16.915Z,3.50
2018-11-26T04:28:17.517Z,3.50
2018-11-26T04:29:16.792Z,3.51
2018-11-26T04:30:17.082Z,3.50
2018-11-26T04:31:17.137Z,3.58
2018-11-26T04:32:16.407Z,3.55
2018-11-26T04:33:16.692Z,3.57
2018-11-26T04:34:17.007Z,3.64
2018-11-26T04:35:16.293Z,3.62
2018-11-26T04:36:16.564Z,3.55
2018-11-26T04:37:16.828Z,3.57
2018-11-26T04:38:17.107Z,3.55
2018-11-26T04:39:16.373Z,3.54
2018-11-26T04:40:16.646Z,3.55
2018-11-26T04:41:16.707Z,3.55
2018-11-26T04:42:16.971Z,3.64
2018-11-26T04:43:16.250Z,3.57
2018-11-26T04:44:16.532Z,3.60
2018-11-26T04:45:16.809Z,3.60
2018-11-26T04:46:17.093Z,3.58
2018-11-26T04:47:16.368Z,3.55
2018-11-26T04:48:16.636Z,3.61
2018-11-26T04:49:16.907Z,3.58
2018-11-26T04:50:17.183Z,3.60
2018-11-26T04:51:16.241Z,3.58
2018-11-26T04:52:16.510Z,3.64
2018-11-26T04:53:16.791Z,3.64
2018-11-26T04:54:17.073Z,3.69
2018-11-26T04:55:16.343Z,3.69
2018-11-26T04:56:16.619Z,3.68
2018-11-26T04:57:16.894Z,3.61
2018-11-26T04:58:17.169Z,3.65
2018-11-26T04:59:16.438Z,3.62
2018-11-26T05:00:16.725Z,3.65
2018-11-26T05:01:16.755Z,3.68
2018-11-26T05:02:17.026Z,3.65
2018-11-26T05:03:16.297Z,3.71
2018-11-26T05:04:16.571Z,3.68
2018-11-26T05:05:16.857Z,3.71
2018-11-26T05:06:17.126Z,3.65
2018-11-26T05:07:16.393Z,3.64
2018-11-26T05:08:16.669Z,3.67
2018-11-26T05:09:16.936Z,3.68
2018-11-26T05:10:17.217Z,3.64
2018-11-26T05:11:16.265Z,3.67
2018-11-26T05:12:16.561Z,3.62
2018-11-26T05:13:16.212Z,3.62
2018-11-26T05:14:16.486Z,3.62
2018-11-26T05:15:16.759Z,3.61
2018-11-26T05:16:17.033Z,3.62
2018-11-26T05:17:16.319Z,3.62
2018-11-26T05:18:16.581Z,3.62
2018-11-26T05:19:16.851Z,3.67
2018-11-26T05:20:17.133Z,3.64
2018-11-26T05:21:17.190Z,3.60
2018-11-26T05:22:16.457Z,3.61
2018-11-26T05:23:16.742Z,3.61
2018-11-26T05:24:17.020Z,3.61
2018-11-26T05:25:16.293Z,3.60
2018-11-26T05:26:16.552Z,3.57
2018-11-26T05:27:16.818Z,3.58
2018-11-26T05:28:17.104Z,3.57
2018-11-26T05:29:16.374Z,3.54
2018-11-26T05:30:16.644Z,3.58
2018-11-26T05:31:16.705Z,3.58
2018-11-26T05:32:16.990Z,3.55
2018-11-26T05:33:16.259Z,3.55
2018-11-26T05:34:16.531Z,3.53
2018-11-26T05:35:17.070Z,3.55
2018-11-26T05:36:16.340Z,3.57
2018-11-26T05:37:16.617Z,3.51
2018-11-26T05:38:16.887Z,3.55
2018-11-26T05:39:17.165Z,3.54
2018-11-26T05:40:16.436Z,3.54
2018-11-26T05:41:16.504Z,3.54
2018-11-26T05:42:16.773Z,3.51
2018-11-26T05:43:17.050Z,3.54
2018-11-26T05:44:16.328Z,3.53
2018-11-26T05:45:16.608Z,3.55
2018-11-26T05:46:16.876Z,3.54
2018-11-26T05:47:17.141Z,3.57
2018-11-26T05:48:16.415Z,3.61
2018-11-26T05:49:16.683Z,3.60
2018-11-26T05:50:16.969Z,3.58
2018-11-26T05:51:17.011Z,3.61
2018-11-26T05:52:16.281Z,3.60
2018-11-26T05:53:16.551Z,3.57
2018-11-26T05:54:16.812Z,3.60
2018-11-26T05:55:17.085Z,3.58
2018-11-26T05:56:16.361Z,3.60
2018-11-26T05:57:16.635Z,3.62
2018-11-26T05:58:16.908Z,3.64
2018-11-26T05:59:17.174Z,3.64
2018-11-26T06:00:16.457Z,3.62
2018-11-26T06:01:16.521Z,3.65
2018-11-26T06:02:16.780Z,3.65
2018-11-26T06:03:17.049Z,3.61
2018-11-26T06:04:16.327Z,3.62
2018-11-26T06:05:16.613Z,3.57
2018-11-26T06:06:16.882Z,3.58
2018-11-26T06:07:17.147Z,3.58
2018-11-26T06:08:16.408Z,3.60
2018-11-26T06:09:16.674Z,3.60
2018-11-26T06:10:16.951Z,3.61
2018-11-26T06:11:17.009Z,3.60
2018-11-26T06:12:16.276Z,3.61
2018-11-26T06:13:16.547Z,3.61
2018-11-26T06:14:16.826Z,3.61
2018-11-26T06:15:17.108Z,3.58
2018-11-26T06:16:16.377Z,3.54
2018-11-26T06:17:16.648Z,3.55
2018-11-26T06:18:16.910Z,3.55
2018-11-26T06:19:17.176Z,3.53
2018-11-26T06:20:16.476Z,3.54
2018-11-26T06:21:16.500Z,3.54
2018-11-26T06:22:16.766Z,3.53
2018-11-26T06:23:17.041Z,3.55
2018-11-26T06:24:16.312Z,3.55
2018-11-26T06:25:16.599Z,3.58
2018-11-26T06:26:16.886Z,3.57
2018-11-26T06:27:17.164Z,3.54
2018-11-26T06:28:16.447Z,3.55
2018-11-26T06:29:16.709Z,3.54
2018-11-26T06:30:17.003Z,3.57
2018-11-26T06:31:17.032Z,3.51
2018-11-26T06:32:16.504Z,3.55
2018-11-26T06:33:16.775Z,3.55
2018-11-26T06:34:17.040Z,3.55
2018-11-26T06:35:16.343Z,3.54
2018-11-26T06:36:16.666Z,3.54
2018-11-26T06:37:16.948Z,3.54
2018-11-26T06:38:16.209Z,3.58
2018-11-26T06:39:16.478Z,3.55
2018-11-26T06:40:16.766Z,3.60
2018-11-26T06:41:16.839Z,3.60
2018-11-26T06:42:17.116Z,3.64
2018-11-26T06:43:17.417Z,3.62
2018-11-26T06:44:16.786Z,3.61
2018-11-26T06:45:17.064Z,3.62
2018-11-26T06:46:16.332Z,3.65
2018-11-26T06:47:16.593Z,3.65
2018-11-26T06:48:16.857Z,3.69
2018-11-26T06:49:17.148Z,3.68
2018-11-26T06:50:16.424Z,3.69
2018-11-26T06:51:16.510Z,3.65
2018-11-26T06:52:16.778Z,3.65
2018-11-26T06:53:17.044Z,3.71
2018-11-26T06:54:16.320Z,3.71
2018-11-26T06:55:16.584Z,3.69
2018-11-26T06:56:16.881Z,3.72
2018-11-26T06:57:17.162Z,3.69
2018-11-26T06:58:16.427Z,3.69
2018-11-26T06:59:16.697Z,3.77
2018-11-26T07:00:16.996Z,3.74
2018-11-26T07:01:17.020Z,3.72
2018-11-26T07:02:16.285Z,3.75
2018-11-26T07:03:16.560Z,3.81
2018-11-26T07:04:16.824Z,3.81
2018-11-26T07:05:17.104Z,3.79
2018-11-26T07:06:16.381Z,3.78
2018-11-26T07:07:16.646Z,3.82
2018-11-26T07:08:16.905Z,3.81
2018-11-26T07:09:17.184Z,3.81
2018-11-26T07:10:16.468Z,3.81
2018-11-26T07:11:16.513Z,3.77
2018-11-26T07:12:16.794Z,3.82
2018-11-26T07:13:17.056Z,3.85
2018-11-26T07:14:16.320Z,3.82
2018-11-26T07:15:16.621Z,3.88
2018-11-26T07:16:16.907Z,3.89
2018-11-26T07:17:17.180Z,3.88
2018-11-26T07:18:16.451Z,3.88
2018-11-26T07:19:16.722Z,3.89
2018-11-26T07:20:17.013Z,3.89
2018-11-26T07:21:17.053Z,3.92
2018-11-26T07:22:16.329Z,3.93
2018-11-26T07:23:16.605Z,3.99
2018-11-26T07:24:16.887Z,3.98
2018-11-26T07:25:17.171Z,3.92
2018-11-26T07:26:16.430Z,3.93
2018-11-26T07:27:16.698Z,3.93
2018-11-26T07:28:16.977Z,3.96
2018-11-26T07:29:16.251Z,3.96
2018-11-26T07:30:16.342Z,4.02
2018-11-26T07:31:16.402Z,3.96
2018-11-26T07:32:16.675Z,3.95
2018-11-26T07:33:16.938Z,3.96
2018-11-26T07:34:16.203Z,4.00
2018-11-26T07:35:16.482Z,3.99
2018-11-26T07:36:16.773Z,4.00
2018-11-26T07:37:17.048Z,3.95
2018-11-26T07:38:16.620Z,3.99
2018-11-26T07:39:16.888Z,4.02
2018-11-26T07:40:17.164Z,4.03
2018-11-26T07:41:16.229Z,3.98
2018-11-26T07:42:16.491Z,4.05
2018-11-26T07:43:16.756Z,4.00
2018-11-26T07:44:17.025Z,4.03
2018-11-26T07:45:16.293Z,4.02
2018-11-26T07:46:16.577Z,4.09
2018-11-26T07:47:16.845Z,4.13
2018-11-26T07:48:17.110Z,4.13
2018-11-26T07:49:16.380Z,4.20
2018-11-26T07:50:16.662Z,4.20
2018-11-26T07:51:16.711Z,4.20
2018-11-26T07:52:16.990Z,4.19
2018-11-26T07:53:16.268Z,4.17
2018-11-26T07:54:16.548Z,4.20
2018-11-26T07:55:16.823Z,4.21
2018-11-26T07:56:17.089Z,4.19
2018-11-26T07:57:16.358Z,4.17
2018-11-26T07:58:16.627Z,4.19
2018-11-26T07:59:16.897Z,4.19
2018-11-26T08:00:17.189Z,4.19
2018-11-26T08:01:16.239Z,4.16
2018-11-26T08:02:16.508Z,4.19
2018-11-26T08:03:16.776Z,4.19
2018-11-26T08:04:17.056Z,4.21
2018-11-26T08:05:16.322Z,4.19
2018-11-26T08:06:16.592Z,4.20
2018-11-26T08:07:16.858Z,4.24
2018-11-26T08:08:17.127Z,4.23
2018-11-26T08:09:16.398Z,4.24
2018-11-26T08:10:16.689Z,4.23
2018-11-26T08:11:16.727Z,4.23
2018-11-26T08:12:17.001Z,4.26
2018-11-26T08:13:16.278Z,4.26
2018-11-26T08:14:16.560Z,4.26
2018-11-26T08:15:16.838Z,4.20
2018-11-26T08:16:17.105Z,4.26
2018-11-26T08:17:16.376Z,4.30
2018-11-26T08:18:16.646Z,4.27
2018-11-26T08:19:16.920Z,4.30
2018-11-26T08:20:17.210Z,4.28
2018-11-26T08:21:16.272Z,4.28
2018-11-26T08:22:16.530Z,4.30
2018-11-26T08:23:16.799Z,4.30
2018-11-26T08:24:17.075Z,4.30
2018-11-26T08:25:16.349Z,4.31
2018-11-26T08:26:16.624Z,4.31
2018-11-26T08:27:16.895Z,4.33
2018-11-26T08:28:17.166Z,4.33
2018-11-26T08:29:16.429Z,4.33
2018-11-26T08:30:16.717Z,4.34
2018-11-26T08:31:16.764Z,4.34
2018-11-26T08:32:17.026Z,4.38
2018-11-26T08:33:16.296Z,4.41
2018-11-26T08:34:16.567Z,4.44
2018-11-26T08:35:16.830Z,4.41
2018-11-26T08:36:17.101Z,4.40
2018-11-26T08:37:16.365Z,4.40
2018-11-26T08:38:16.681Z,4.44
2018-11-26T08:39:16.958Z,4.44
2018-11-26T08:40:16.245Z,4.53
2018-11-26T08:41:16.305Z,4.51
2018-11-26T08:42:16.583Z,4.53
2018-11-26T08:43:16.847Z,4.53
2018-11-26T08:44:17.120Z,4.57
2018-11-26T08:45:16.376Z,4.57
2018-11-26T08:46:16.644Z,4.63
2018-11-26T08:47:16.917Z,4.63
2018-11-26T08:48:17.189Z,4.65
2018-11-26T08:49:16.521Z,4.67
2018-11-26T08:50:16.809Z,4.68
2018-11-26T08:51:16.852Z,4.75
2018-11-26T08:52:17.138Z,4.74
2018-11-26T08:53:16.410Z,4.78
2018-11-26T08:54:16.678Z,4.79
2018-11-26T08:55:17.022Z,4.81
2018-11-26T08:56:16.296Z,4.81
2018-11-26T08:57:16.570Z,4.88
2018-11-26T08:58:16.850Z,4.88
2018-11-26T08:59:17.125Z,4.88
2018-11-26T09:00:16.402Z,4.89
2018-11-26T09:01:16.492Z,4.96
2018-11-26T09:02:16.759Z,4.98
2018-11-26T09:03:17.041Z,5.00
2018-11-26T09:04:16.317Z,5.07
2018-11-26T09:05:23.724Z,5.26
2018-11-26T09:06:16.598Z,5.30
2018-11-26T09:07:16.873Z,5.41
2018-11-26T09:08:17.160Z,5.50
2018-11-26T09:09:16.423Z,5.50
2018-11-26T09:10:16.714Z,5.57
2018-11-26T09:11:16.777Z,5.58
2018-11-26T09:12:17.051Z,5.62
2018-11-26T09:13:16.328Z,5.60
2018-11-26T09:14:16.613Z,5.61
2018-11-26T09:15:16.903Z,5.67
2018-11-26T09:16:17.172Z,5.64
2018-11-26T09:17:16.438Z,5.68
2018-11-26T09:18:16.711Z,5.70
2018-11-26T09:19:16.990Z,5.71
2018-11-26T09:20:16.269Z,5.77
2018-11-26T09:21:16.353Z,5.75
2018-11-26T09:22:16.630Z,5.74
2018-11-26T09:23:16.896Z,5.75
2018-11-26T09:24:17.170Z,5.78
2018-11-26T09:25:16.443Z,5.81
2018-11-26T09:26:16.714Z,5.79
2018-11-26T09:27:16.986Z,5.82
2018-11-26T09:28:16.257Z,5.81
2018-11-26T09:29:16.529Z,5.84
2018-11-26T09:30:16.825Z,5.85
2018-11-26T09:31:16.873Z,5.85
2018-11-26T09:32:17.144Z,5.84
2018-11-26T09:33:16.416Z,5.85
2018-11-26T09:34:16.686Z,5.89
2018-11-26T09:35:16.964Z,5.85
2018-11-26T09:36:16.232Z,5.89
2018-11-26T09:37:16.498Z,5.88
2018-11-26T09:38:16.775Z,5.88
2018-11-26T09:39:17.042Z,5.88
2018-11-26T09:40:16.349Z,5.84
2018-11-26T09:41:16.374Z,5.86
2018-11-26T09:42:16.652Z,5.86
2018-11-26T09:43:16.913Z,5.88
2018-11-26T09:44:17.177Z,5.86
2018-11-26T09:45:16.449Z,5.86
2018-11-26T09:46:16.723Z,5.91
2018-11-26T09:47:16.995Z,5.86
2018-11-26T09:48:16.264Z,5.88
2018-11-26T09:49:16.528Z,5.88
2018-11-26T09:50:16.866Z,5.89
2018-11-26T09:51:16.912Z,5.89
2018-11-26T09:52:17.176Z,5.88
2018-11-26T09:53:16.435Z,5.89
2018-11-26T09:54:16.728Z,5.91
2018-11-26T09:55:17.020Z,5.91
2018-11-26T09:56:16.287Z,5.89
2018-11-26T09:57:16.561Z,5.91
2018-11-26T09:58:16.829Z,5.92
2018-11-26T09:59:17.101Z,5.91
2018-11-26T10:00:16.378Z,5.93
2018-11-26T10:01:16.433Z,5.91
2018-11-26T10:02:16.700Z,5.92
2018-11-26T10:03:16.981Z,5.92
2018-11-26T10:04:16.293Z,5.95
2018-11-26T10:05:16.559Z,5.95
2018-11-26T10:06:16.822Z,5.95
2018-11-26T10:07:17.091Z,5.99
2018-11-26T10:08:16.359Z,6.02
2018-11-26T10:09:16.628Z,6.00
2018-11-26T10:10:16.930Z,5.99
2018-11-26T10:11:16.945Z,6.00
2018-11-26T10:12:16.210Z,6.03
2018-11-26T10:13:16.485Z,6.05
2018-11-26T10:14:16.760Z,6.03
2018-11-26T10:15:17.040Z,6.02
2018-11-26T10:16:16.497Z,6.02
2018-11-26T10:17:16.778Z,6.00
2018-11-26T10:18:17.053Z,5.96
2018-11-26T10:19:16.320Z,5.95
2018-11-26T10:20:16.607Z,6.00
2018-11-26T10:21:16.652Z,5.99
2018-11-26T10:22:16.928Z,6.00
2018-11-26T10:23:17.198Z,6.02
2018-11-26T10:24:16.460Z,6.03
2018-11-26T10:25:16.725Z,6.08
2018-11-26T10:26:16.990Z,6.06
2018-11-26T10:27:16.262Z,6.06
2018-11-26T10:28:16.533Z,6.12
2018-11-26T10:29:16.815Z,6.12
2018-11-26T10:30:17.101Z,6.16
2018-11-26T10:31:17.124Z,6.12
2018-11-26T10:32:16.410Z,6.17
2018-11-26T10:33:16.671Z,6.21
2018-11-26T10:34:16.946Z,6.21
2018-11-26T10:35:16.212Z,6.26
2018-11-26T10:36:16.503Z,6.26
2018-11-26T10:37:16.772Z,6.30
2018-11-26T10:38:17.052Z,6.33
2018-11-26T10:39:16.320Z,6.31
2018-11-26T10:40:16.625Z,6.33
2018-11-26T10:41:16.674Z,6.31
2018-11-26T10:42:16.939Z,6.37
2018-11-26T10:43:16.216Z,6.38
2018-11-26T10:44:16.500Z,6.38
2018-11-26T10:45:16.771Z,6.40
2018-11-26T10:46:17.040Z,6.44
2018-11-26T10:47:16.300Z,6.43
2018-11-26T10:48:16.572Z,6.51
2018-11-26T10:49:16.849Z,6.51
2018-11-26T10:50:17.149Z,6.52
2018-11-26T10:51:16.211Z,6.52
2018-11-26T10:52:16.487Z,6.51
2018-11-26T10:53:16.779Z,6.54
2018-11-26T10:54:17.044Z,6.51
2018-11-26T10:55:16.319Z,6.51
2018-11-26T10:56:16.591Z,6.55
2018-11-26T10:57:16.864Z,6.58
2018-11-26T10:58:17.505Z,6.55
2018-11-26T10:59:16.777Z,6.63
2018-11-26T11:00:17.072Z,6.57
2018-11-26T11:01:17.117Z,6.61
2018-11-26T11:02:16.388Z,6.61
2018-11-26T11:03:16.719Z,6.59
2018-11-26T11:04:17.104Z,6.64
2018-11-26T11:05:16.452Z,6.67
2018-11-26T11:06:16.799Z,6.63
2018-11-26T11:07:17.085Z,6.71
2018-11-26T11:08:16.387Z,6.67
2018-11-26T11:09:16.685Z,6.68
2018-11-26T11:10:17.013Z,6.64
2018-11-26T11:11:23.062Z,6.57
2018-11-26T11:12:17.103Z,6.64
2018-11-26T11:13:16.381Z,6.65
2018-11-26T11:14:16.671Z,6.67
2018-11-26T11:15:16.975Z,6.69
2018-11-26T11:16:16.264Z,6.68
2018-11-26T11:17:16.559Z,6.64
2018-11-26T11:18:16.858Z,6.67
2018-11-26T11:19:17.160Z,6.69
2018-11-26T11:20:16.463Z,6.74
2018-11-26T11:21:16.519Z,6.72
2018-11-26T11:22:16.820Z,6.78
2018-11-26T11:23:17.115Z,6.79
2018-11-26T11:24:16.411Z,6.79
2018-11-26T11:25:16.716Z,6.72
2018-11-26T11:26:17.047Z,6.72
2018-11-26T11:27:16.323Z,6.72
2018-11-26T11:28:16.803Z,6.67
2018-11-26T11:29:17.100Z,6.67
2018-11-26T11:30:16.398Z,6.71
2018-11-26T11:31:16.492Z,6.74
2018-11-26T11:32:16.783Z,6.69
2018-11-26T11:34:16.542Z,6.74
2018-11-26T11:35:16.852Z,6.78
2018-11-26T11:36:17.134Z,6.76
2018-11-26T11:37:16.434Z,6.69
2018-11-26T11:38:16.701Z,6.71
2018-11-26T11:39:17.005Z,6.71
2018-11-26T11:40:16.305Z,6.69
2018-11-26T11:41:16.383Z,6.65
2018-11-26T11:42:16.665Z,6.67
2018-11-26T11:43:16.963Z,6.64
2018-11-26T11:44:16.286Z,6.64
2018-11-26T11:45:16.545Z,6.65
2018-11-26T11:46:16.843Z,6.63
2018-11-26T11:47:17.118Z,6.63
2018-11-26T11:48:16.404Z,6.63
2018-11-26T11:49:16.680Z,6.64
2018-11-26T11:50:16.986Z,6.64
2018-11-26T11:51:17.065Z,6.65
2018-11-26T11:52:16.347Z,6.68
2018-11-26T11:53:16.620Z,6.68
2018-11-26T11:54:16.906Z,6.71
2018-11-26T11:55:17.198Z,6.71
2018-11-26T11:56:16.483Z,6.74
2018-11-26T11:57:16.773Z,6.71
2018-11-26T11:58:17.064Z,6.68
2018-11-26T11:59:16.358Z,6.74
2018-11-26T12:00:16.654Z,6.69
2018-11-26T12:01:16.698Z,6.67
2018-11-26T12:02:16.959Z,6.65
2018-11-26T12:03:16.225Z,6.68
2018-11-26T12:04:16.529Z,6.67
2018-11-26T12:05:16.799Z,6.63
2018-11-26T12:06:17.094Z,6.61
2018-11-26T12:07:16.396Z,6.57
2018-11-26T12:08:16.677Z,6.57
2018-11-26T12:09:16.969Z,6.59
2018-11-26T12:10:16.263Z,6.58
2018-11-26T12:11:16.347Z,6.61
2018-11-26T12:12:16.621Z,6.59
2018-11-26T12:13:16.911Z,6.59
2018-11-26T12:14:17.197Z,6.58
2018-11-26T12:15:16.499Z,6.52
2018-11-26T12:16:16.800Z,6.54
2018-11-26T12:17:17.093Z,6.54
2018-11-26T12:18:16.372Z,6.52
2018-11-26T12:19:16.670Z,6.55
2018-11-26T12:20:16.974Z,6.54
2018-11-26T12:21:17.005Z,6.54
2018-11-26T12:22:16.307Z,6.57
2018-11-26T12:23:16.571Z,6.54
2018-11-26T12:24:16.833Z,6.58
2018-11-26T12:25:17.107Z,6.61
2018-11-26T12:26:16.382Z,6.61
2018-11-26T12:27:16.676Z,6.58
2018-11-26T12:28:16.983Z,6.54
2018-11-26T12:29:16.257Z,6.55
2018-11-26T12:30:16.576Z,6.55
2018-11-26T12:31:16.640Z,6.55
2018-11-26T12:32:16.936Z,6.52
2018-11-26T12:33:16.237Z,6.54
2018-11-26T12:34:16.544Z,6.55
2018-11-26T12:35:16.843Z,6.54
2018-11-26T12:36:17.178Z,6.51
2018-11-26T12:37:16.480Z,6.54
2018-11-26T12:38:16.790Z,6.51
2018-11-26T12:39:17.086Z,6.58
2018-11-26T12:40:16.351Z,6.59
2018-11-26T12:41:16.416Z,6.58
2018-11-26T12:42:16.690Z,6.55
2018-11-26T12:43:16.966Z,6.55
2018-11-26T12:44:16.243Z,6.57
2018-11-26T12:45:16.552Z,6.55
2018-11-26T12:46:16.848Z,6.57
2018-11-26T12:47:17.122Z,6.57
2018-11-26T12:48:16.391Z,6.58
2018-11-26T12:49:16.694Z,6.54
2018-11-26T12:50:16.988Z,6.57
2018-11-26T12:51:17.034Z,6.54
2018-11-26T12:52:16.310Z,6.54
2018-11-26T12:53:16.579Z,6.55
2018-11-26T12:54:16.878Z,6.51
2018-11-26T12:55:17.181Z,6.49
2018-11-26T12:56:16.469Z,6.48
2018-11-26T12:57:16.766Z,6.51
2018-11-26T12:58:17.026Z,6.49
2018-11-26T12:59:16.307Z,6.52
2018-11-26T13:00:16.593Z,6.57
2018-11-26T13:01:16.658Z,6.55
2018-11-26T13:02:16.941Z,6.57
2018-11-26T13:03:16.240Z,6.55
2018-11-26T13:04:16.544Z,6.55
2018-11-26T13:05:16.827Z,6.55
2018-11-26T13:06:17.124Z,6.52
2018-11-26T13:07:16.435Z,6.51
2018-11-26T13:08:17.038Z,6.51
2018-11-26T13:09:16.342Z,6.55
2018-11-26T13:10:16.662Z,6.52
2018-11-26T13:11:16.715Z,6.54
2018-11-26T13:12:16.987Z,6.55
2018-11-26T13:13:16.259Z,6.51
2018-11-26T13:14:16.558Z,6.52
2018-11-26T13:15:16.878Z,6.51
2018-11-26T13:16:17.149Z,6.54
2018-11-26T13:17:16.430Z,6.54
2018-11-26T13:18:16.715Z,6.55
2018-11-26T13:19:17.011Z,6.58